Time;durP1;ratioP1;P1;durP2;ratioP2;P2;SDS_P1;SDS_P2;PMS_P1;PMS_P2;Temp;Humidity;BMP_temperature;BMP_pressure;BME280_temperature;BME280_humidity;BME280_pressure;Samples;Min_cycle;Max_cycle;Signal;HPM_P1;HPM_P2
2021/01/29 04:10:32;;;;;;;2.15;1.05;;;9.10;99.90;;;;;;4553584;24;20414;-78
2021/01/29 04:13:39;;;;;;;3.58;1.45;;;9.10;99.90;;;;;;4719666;30;20048;-79
2021/01/29 04:16:36;;;;;;;1.67;1.13;;;9.10;99.90;;;;;;4711041;30;20048;-78
2021/01/29 04:19:06;;;;;;;2.35;1.48;;;9.20;99.90;;;;;;4730135;30;20063;-79
2021/01/29 04:21:56;;;;;;;1.85;1.30;;;9.10;99.90;;;;;;4729960;30;20032;-80
2021/01/29 04:24:27;;;;;;;2.60;1.35;;;9.10;99.90;;;;;;4730800;30;20410;-80
2021/01/29 04:27:17;;;;;;;2.33;1.30;;;9.20;99.90;;;;;;4730747;30;20053;-78
2021/01/29 04:55:43;;;;;;;2.60;1.27;;;8.90;99.90;;;;;;4460622;24;20413;-76
2021/01/29 04:58:09;;;;;;;;;;;9.00;99.90;;;;;;4732877;30;20040;-76
2021/01/29 05:01:35;;;;;;;2.70;1.55;;;8.90;99.90;;;;;;4728853;30;20466;-76
2021/01/29 05:04:55;;;;;;;4.45;2.17;;;8.90;99.90;;;;;;4726087;30;20103;-75
2021/01/29 05:08:02;;;;;;;4.50;1.63;;;8.90;99.90;;;;;;4728835;30;20059;-76
2021/01/29 05:11:26;;;;;;;6.13;2.05;;;8.90;99.90;;;;;;4731047;30;20056;-75
2021/01/29 05:14:08;;;;;;;3.38;1.52;;;8.90;99.90;;;;;;4670442;30;20183;-75
2021/01/29 05:17:00;;;;;;;5.85;1.80;;;8.80;99.90;;;;;;4724348;30;20132;-77
2021/01/29 05:19:41;;;;;;;6.47;2.35;;;8.80;99.90;;;;;;4730259;30;20114;-77
2021/01/29 05:22:40;;;;;;;3.60;1.80;;;8.80;99.90;;;;;;4730687;30;20033;-75
2021/01/29 05:25:26;;;;;;;5.35;1.90;;;8.70;99.90;;;;;;4730867;30;20036;-76
2021/01/29 05:28:23;;;;;;;3.33;2.13;;;8.70;99.90;;;;;;4730832;30;20040;-74
2021/01/29 05:30:55;;;;;;;5.03;1.95;;;8.70;99.90;;;;;;4729363;30;20052;-74
2021/01/29 05:33:47;;;;;;;3.33;1.73;;;8.70;99.90;;;;;;4730786;30;20097;-75
2021/01/29 05:36:34;;;;;;;5.72;1.95;;;8.70;99.90;;;;;;4730250;30;20053;-75
2021/01/29 05:39:20;;;;;;;5.55;2.40;;;8.70;99.90;;;;;;4716926;30;20072;-74
2021/01/29 05:42:13;;;;;;;7.03;3.03;;;8.70;99.90;;;;;;4730468;30;20040;-76
2021/01/29 05:44:55;;;;;;;3.47;2.38;;;8.60;99.90;;;;;;4730485;30;20090;-74
2021/01/29 05:47:40;;;;;;;6.38;2.75;;;8.60;99.90;;;;;;4729803;30;20497;-75
2021/01/29 05:50:24;;;;;;;5.03;2.38;;;8.70;99.90;;;;;;4728540;30;20039;-74
2021/01/29 05:53:28;;;;;;;3.88;2.30;;;8.60;99.90;;;;;;4714082;30;20033;-77
2021/01/29 05:56:02;;;;;;;5.68;2.63;;;8.60;99.90;;;;;;4714090;30;20060;-74
2021/01/29 05:58:51;;;;;;;3.17;2.22;;;8.60;99.90;;;;;;4714260;30;20441;-74
2021/01/29 06:01:42;;;;;;;7.60;2.30;;;8.60;99.90;;;;;;4723988;30;20120;-78
2021/01/29 06:04:30;;;;;;;5.20;2.80;;;8.60;99.90;;;;;;4731574;30;20037;-76
2021/01/29 06:07:29;;;;;;;6.60;2.65;;;8.60;99.90;;;;;;4731610;30;20044;-76
2021/01/29 06:10:20;;;;;;;3.70;2.30;;;8.60;99.90;;;;;;4726559;30;20394;-75
2021/01/29 06:13:10;;;;;;;3.15;2.35;;;8.60;99.90;;;;;;4712726;30;20037;-76
2021/01/29 06:16:05;;;;;;;5.95;2.30;;;8.60;99.90;;;;;;4714177;30;20125;-77
2021/01/29 06:19:08;;;;;;;5.35;2.95;;;8.60;99.90;;;;;;4714164;30;20075;-76
2021/01/29 06:21:52;;;;;;;5.13;2.70;;;8.60;99.90;;;;;;4726948;30;20089;-77
2021/01/29 06:24:34;;;;;;;5.88;2.60;;;8.70;99.90;;;;;;4731550;30;20036;-76
2021/01/29 06:27:22;;;;;;;8.10;2.47;;;8.70;99.90;;;;;;4731493;30;20098;-76
2021/01/29 06:30:00;;;;;;;4.38;2.28;;;8.70;99.90;;;;;;4731757;30;20557;-76
2021/01/29 06:32:40;;;;;;;7.35;2.22;;;8.80;99.90;;;;;;4714034;30;20033;-76
2021/01/29 06:35:24;;;;;;;6.20;2.58;;;8.80;99.90;;;;;;4713647;30;20041;-75
2021/01/29 06:38:20;;;;;;;4.97;2.17;;;8.80;99.90;;;;;;4714216;30;20095;-77
2021/01/29 06:40:58;;;;;;;7.20;3.17;;;8.90;99.90;;;;;;4716935;30;20052;-78
2021/01/29 06:43:36;;;;;;;4.93;2.65;;;8.90;99.90;;;;;;4731561;30;20043;-76
2021/01/29 06:46:26;;;;;;;7.53;2.53;;;9.00;99.90;;;;;;4731500;30;20044;-78
2021/01/29 06:49:16;;;;;;;5.43;2.85;;;9.00;99.90;;;;;;4731303;30;20036;-76
2021/01/29 06:52:01;;;;;;;9.60;3.45;;;9.10;99.90;;;;;;4723635;30;20036;-77
2021/01/29 06:54:51;;;;;;;9.85;2.92;;;9.10;99.90;;;;;;4713773;30;20049;-77
2021/01/29 06:57:35;;;;;;;7.35;3.38;;;9.20;99.90;;;;;;4711017;30;20542;-76
2021/01/29 07:00:36;;;;;;;7.00;3.25;;;9.30;99.90;;;;;;4713736;30;20048;-78
2021/01/29 07:03:40;;;;;;;6.63;3.65;;;9.40;99.90;;;;;;4727669;30;20112;-76
2021/01/29 07:06:26;;;;;;;5.80;2.60;;;9.40;99.90;;;;;;4731263;30;20028;-77
2021/01/29 07:09:11;;;;;;;11.90;2.92;;;9.50;99.90;;;;;;4730066;30;20108;-77
2021/01/29 07:12:04;;;;;;;4.72;2.42;;;9.50;99.90;;;;;;4729442;30;20069;-77
2021/01/29 07:14:50;;;;;;;6.70;2.70;;;9.60;99.90;;;;;;4713566;30;20044;-75
2021/01/29 07:17:32;;;;;;;4.85;2.50;;;9.60;99.90;;;;;;4713773;30;20099;-75
2021/01/29 07:20:17;;;;;;;9.07;2.47;;;9.60;99.90;;;;;;4713406;30;20045;-75
2021/01/29 07:23:10;;;;;;;5.35;2.33;;;9.70;99.90;;;;;;4719012;30;20063;-76
2021/01/29 07:26:06;;;;;;;8.50;3.50;;;9.70;99.90;;;;;;4729411;30;20061;-74
2021/01/29 07:28:35;;;;;;;6.43;2.55;;;9.70;99.90;;;;;;4730883;30;20040;-76
2021/01/29 07:31:38;;;;;;;6.93;2.72;;;9.80;99.90;;;;;;4730886;30;20039;-75
2021/01/29 07:34:27;;;;;;;6.47;2.65;;;9.70;99.90;;;;;;4718748;30;20120;-75
2021/01/29 07:37:14;;;;;;;5.05;2.08;;;9.80;99.90;;;;;;4732343;30;20033;-77
2021/01/29 07:40:25;;;;;;;5.88;2.35;;;9.90;99.90;;;;;;4734011;30;20136;-75
2021/01/29 07:43:06;;;;;;;8.65;2.55;;;10.00;99.90;;;;;;4730611;30;20037;-75
2021/01/29 07:45:55;;;;;;;4.25;2.08;;;10.10;99.90;;;;;;4721525;30;20032;-74
2021/01/29 07:48:50;;;;;;;4.65;2.30;;;10.20;99.90;;;;;;4751578;30;20071;-76
2021/01/29 07:51:34;;;;;;;5.05;2.00;;;10.20;99.90;;;;;;4751133;30;20054;-75
2021/01/29 07:54:30;;;;;;;4.63;2.05;;;10.20;99.90;;;;;;4734455;30;20391;-75
2021/01/29 07:57:12;;;;;;;6.97;2.80;;;10.30;99.90;;;;;;4727139;30;20044;-76
2021/01/29 08:00:05;;;;;;;6.18;2.42;;;10.40;99.90;;;;;;4728399;30;20048;-74
2021/01/29 08:02:59;;;;;;;5.78;2.25;;;10.60;99.90;;;;;;4715462;30;20159;-75
2021/01/29 08:05:36;;;;;;;5.57;2.38;;;10.70;99.90;;;;;;4715974;30;20040;-75
2021/01/29 08:08:26;;;;;;;4.35;1.80;;;10.80;99.90;;;;;;4744395;30;20035;-74
2021/01/29 08:10:55;;;;;;;4.10;1.90;;;11.00;99.90;;;;;;4730206;30;20041;-74
2021/01/29 08:13:32;;;;;;;4.40;2.40;;;11.10;99.90;;;;;;4732589;30;20091;-74
2021/01/29 08:16:01;;;;;;;3.65;1.55;;;11.20;99.90;;;;;;4731085;30;20041;-73
2021/01/29 08:18:41;;;;;;;4.88;2.03;;;11.40;99.90;;;;;;4733048;30;20041;-75
2021/01/29 08:21:51;;;;;;;4.63;1.90;;;11.50;99.90;;;;;;4730575;30;20132;-73
2021/01/29 08:24:45;;;;;;;4.35;1.80;;;11.60;99.90;;;;;;4669377;30;20492;-72
2021/01/29 08:27:51;;;;;;;3.38;1.70;;;11.70;99.90;;;;;;4730724;30;20158;-74
2021/01/29 08:30:50;;;;;;;4.60;1.75;;;11.80;99.90;;;;;;4730162;30;20552;-72
2021/01/29 08:34:00;;;;;;;1.05;0.80;;;11.80;99.90;;;;;;4735854;30;20386;-74
2021/01/29 08:37:03;;;;;;;4.47;1.70;;;11.90;99.90;;;;;;4730829;30;20036;-73
2021/01/29 08:39:37;;;;;;;2.85;1.33;;;12.00;99.90;;;;;;4735742;30;20037;-72
2021/01/29 08:42:43;;;;;;;3.58;1.48;;;12.10;99.90;;;;;;4729993;30;20493;-72
2021/01/29 08:45:41;;;;;;;3.70;1.23;;;12.20;99.90;;;;;;4729892;30;20040;-72
2021/01/29 08:48:47;;;;;;;5.93;1.60;;;12.30;99.90;;;;;;4735697;30;20041;-76
2021/01/29 08:51:19;;;;;;;4.28;1.65;;;12.40;99.90;;;;;;4720551;30;20078;-74
2021/01/29 08:54:31;;;;;;;9.57;2.08;;;12.40;99.90;;;;;;4728853;30;20162;-76
2021/01/29 08:57:12;;;;;;;4.20;1.50;;;12.60;99.90;;;;;;4728531;30;20411;-73
2021/01/29 08:59:40;;;;;;;5.80;1.77;;;12.70;99.90;;;;;;4731246;30;20045;-73
2021/01/29 09:02:28;;;;;;;1.50;1.10;;;12.80;99.90;;;;;;4729986;30;20490;-75
2021/01/29 09:05:06;;;;;;;1.73;1.02;;;12.70;99.90;;;;;;4731228;30;20039;-73
2021/01/29 09:07:39;;;;;;;8.07;1.17;;;12.80;99.90;;;;;;4730068;30;20444;-72
2021/01/29 09:10:21;;;;;;;4.68;1.17;;;12.90;99.90;;;;;;4730286;30;20037;-73
2021/01/29 09:13:02;;;;;;;2.95;1.27;;;12.90;99.90;;;;;;4729856;30;20041;-73
2021/01/29 09:15:55;;;;;;;2.85;1.70;;;13.00;99.90;;;;;;4732963;30;20039;-72
2021/01/29 09:18:31;;;;;;;2.83;1.50;;;13.00;99.90;;;;;;4725415;30;20055;-72
2021/01/29 09:21:09;;;;;;;4.47;1.23;;;13.00;99.90;;;;;;4729864;30;20032;-72
2021/01/29 09:23:48;;;;;;;2.65;1.10;;;13.00;99.90;;;;;;4727684;30;20491;-73
2021/01/29 09:26:39;;;;;;;3.20;1.10;;;13.00;99.90;;;;;;4729308;30;20047;-73
2021/01/29 09:29:14;;;;;;;3.88;1.55;;;13.00;99.90;;;;;;4730018;30;20029;-73
2021/01/29 09:31:42;;;;;;;1.77;1.20;;;13.00;99.90;;;;;;4729022;30;20036;-73
2021/01/29 09:34:18;;;;;;;2.28;1.63;;;13.00;99.90;;;;;;4729825;30;20057;-73
2021/01/29 09:36:54;;;;;;;4.07;1.83;;;13.00;99.90;;;;;;4729588;30;20024;-73
2021/01/29 09:39:38;;;;;;;3.00;1.40;;;13.00;99.90;;;;;;4730915;30;20491;-73
2021/01/29 09:42:14;;;;;;;3.53;1.50;;;13.10;99.90;;;;;;4730166;30;20513;-72
2021/01/29 09:44:46;;;;;;;3.60;1.23;;;13.00;99.90;;;;;;4729345;30;20386;-73
2021/01/29 09:47:21;;;;;;;2.35;1.10;;;13.00;99.90;;;;;;4725107;30;20095;-72
2021/01/29 09:49:50;;;;;;;2.30;1.50;;;13.00;99.90;;;;;;4728409;30;20394;-73
2021/01/29 09:52:39;;;;;;;3.00;1.70;;;13.00;99.90;;;;;;4730342;30;20051;-73
2021/01/29 09:55:13;;;;;;;2.50;1.38;;;13.10;99.90;;;;;;4729802;30;20507;-73
2021/01/29 09:58:17;;;;;;;5.55;2.03;;;13.10;99.90;;;;;;4731781;30;20036;-72
2021/01/29 10:00:55;;;;;;;5.10;2.08;;;13.10;99.90;;;;;;4716722;30;20056;-73
2021/01/29 10:03:39;;;;;;;5.13;2.35;;;13.10;99.90;;;;;;4729609;30;20020;-76
2021/01/29 10:06:19;;;;;;;1.80;1.27;;;13.10;99.90;;;;;;4729408;30;20174;-76
2021/01/29 10:08:54;;;;;;;4.88;1.80;;;13.10;99.90;;;;;;4730114;30;20033;-72
2021/01/29 10:11:22;;;;;;;2.72;1.45;;;13.20;99.90;;;;;;4726577;30;20040;-73
2021/01/29 10:14:13;;;;;;;5.78;2.38;;;13.30;99.90;;;;;;4729310;30;20491;-72
2021/01/29 10:16:53;;;;;;;6.22;3.28;;;13.30;99.90;;;;;;4729418;30;20060;-73
2021/01/29 10:19:20;;;;;;;5.47;2.60;;;13.40;99.90;;;;;;4730467;30;20048;-73
2021/01/29 10:21:59;;;;;;;5.70;2.70;;;13.50;99.90;;;;;;4729993;30;20024;-73
2021/01/29 10:24:55;;;;;;;1.20;1.05;;;13.60;99.90;;;;;;4729113;30;20073;-73
2021/01/29 10:27:27;;;;;;;3.05;1.17;;;13.70;99.90;;;;;;4730846;30;20033;-75
2021/01/29 10:30:13;;;;;;;3.47;1.27;;;13.80;99.90;;;;;;4730292;30;20097;-73
2021/01/29 10:32:50;;;;;;;2.17;0.93;;;13.90;99.90;;;;;;4729243;30;20570;-74
2021/01/29 10:35:34;;;;;;;2.17;1.17;;;14.00;99.90;;;;;;4730623;30;20040;-73
2021/01/29 10:38:07;;;;;;;2.53;1.02;;;14.10;99.90;;;;;;4730204;30;20054;-73
2021/01/29 10:40:48;;;;;;;3.00;1.30;;;14.10;99.90;;;;;;4731302;30;20508;-72
2021/01/29 10:43:38;;;;;;;5.78;1.25;;;14.10;99.90;;;;;;4728782;30;20039;-72
2021/01/29 10:46:16;;;;;;;2.00;1.10;;;14.20;99.90;;;;;;4730023;30;20498;-73
2021/01/29 10:49:30;;;;;;;3.13;1.35;;;14.20;99.90;;;;;;4731395;30;20059;-73
2021/01/29 10:52:18;;;;;;;5.10;1.13;;;14.20;99.90;;;;;;4710239;30;20684;-74
2021/01/29 10:54:45;;;;;;;3.13;1.73;;;14.20;99.90;;;;;;4728567;30;20045;-75
2021/01/29 10:57:20;;;;;;;6.43;2.20;;;14.30;99.90;;;;;;4730147;30;20455;-73
2021/01/29 11:00:00;;;;;;;4.47;2.38;;;14.40;99.90;;;;;;4730076;30;20053;-72
2021/01/29 11:02:41;;;;;;;5.15;1.95;;;14.40;99.90;;;;;;4727736;30;20391;-72
2021/01/29 11:05:17;;;;;;;3.33;1.90;;;14.40;99.90;;;;;;4729509;30;20044;-73
2021/01/29 11:07:47;;;;;;;4.15;1.92;;;14.50;99.90;;;;;;4729484;30;20047;-75
2021/01/29 11:10:35;;;;;;;8.85;2.20;;;14.60;99.90;;;;;;4731424;30;20777;-73
2021/01/29 11:13:19;;;;;;;1.75;1.10;;;14.60;99.90;;;;;;4731522;30;20039;-73
2021/01/29 11:15:54;;;;;;;4.70;1.45;;;14.60;99.90;;;;;;4732527;30;20029;-74
2021/01/29 11:18:25;;;;;;;2.55;1.02;;;14.60;99.90;;;;;;4731647;30;20056;-72
2021/01/29 11:21:05;;;;;;;5.80;1.85;;;14.40;99.90;;;;;;4732452;30;20041;-73
2021/01/29 11:23:49;;;;;;;5.47;1.67;;;14.30;99.90;;;;;;4733288;30;20029;-73
2021/01/29 11:26:15;;;;;;;;;;;14.30;99.90;;;;;;4732886;30;20236;-73
2021/01/29 11:28:46;;;;;;;6.53;1.37;;;14.20;99.90;;;;;;4732349;30;20086;-73
2021/01/29 11:31:39;;;;;;;5.28;1.45;;;14.20;99.90;;;;;;4730705;30;20033;-72
2021/01/29 11:34:15;;;;;;;6.53;2.38;;;14.30;99.90;;;;;;4724707;30;20102;-73
2021/01/29 11:36:56;;;;;;;4.75;1.40;;;14.40;99.90;;;;;;4732164;30;20044;-75
2021/01/29 11:39:57;;;;;;;4.32;2.03;;;14.40;99.90;;;;;;4732697;30;20071;-72
2021/01/29 11:42:41;;;;;;;4.03;1.80;;;14.40;99.90;;;;;;4732491;30;20029;-73
2021/01/29 11:45:20;;;;;;;3.17;1.80;;;14.40;99.90;;;;;;4732279;30;20032;-73
2021/01/29 11:47:54;;;;;;;5.90;1.73;;;14.40;99.90;;;;;;4732049;30;20044;-74
2021/01/29 11:50:29;;;;;;;2.67;1.83;;;14.40;99.90;;;;;;4735406;30;20047;-72
2021/01/29 11:53:18;;;;;;;11.55;3.28;;;14.40;99.90;;;;;;4732844;30;20110;-73
2021/01/29 11:55:59;;;;;;;5.85;2.35;;;14.40;99.90;;;;;;4732323;30;20072;-73
2021/01/29 11:59:01;;;;;;;9.23;2.15;;;14.40;99.90;;;;;;4732131;30;20495;-72
2021/01/29 12:01:35;;;;;;;4.65;2.10;;;14.40;99.90;;;;;;4717992;30;20043;-73
2021/01/29 12:04:39;;;;;;;2.85;1.50;;;14.30;99.90;;;;;;4731978;30;20390;-71
2021/01/29 12:07:17;;;;;;;4.50;1.75;;;14.20;99.90;;;;;;4731279;30;20123;-74
2021/01/29 12:09:49;;;;;;;3.40;1.92;;;14.10;99.90;;;;;;4731880;30;20533;-73
2021/01/29 12:12:19;;;;;;;4.57;1.83;;;14.20;99.90;;;;;;4731855;30;20033;-73
2021/01/29 12:15:16;;;;;;;3.70;1.95;;;14.20;99.90;;;;;;4732480;30;20089;-75
2021/01/29 12:17:58;;;;;;;3.15;2.10;;;14.30;99.90;;;;;;4730638;30;20044;-73
2021/01/29 12:20:28;;;;;;;3.85;1.50;;;14.50;99.90;;;;;;4729178;30;20047;-75
2021/01/29 12:23:22;;;;;;;3.97;1.40;;;14.50;99.90;;;;;;4735302;30;20037;-73
2021/01/29 12:25:55;;;;;;;8.75;2.33;;;14.30;99.90;;;;;;4731777;30;20515;-73
2021/01/29 12:28:40;;;;;;;1.60;1.45;;;14.40;99.90;;;;;;4731199;30;20505;-73
2021/01/29 12:31:20;;;;;;;10.02;1.98;;;14.40;99.90;;;;;;4731351;30;20025;-75
2021/01/29 12:33:56;;;;;;;6.88;1.75;;;14.40;99.90;;;;;;4732563;30;20036;-74
2021/01/29 12:36:26;;;;;;;2.90;1.40;;;14.30;99.90;;;;;;4731887;30;20094;-72
2021/01/29 12:39:12;;;;;;;4.93;1.60;;;14.30;99.90;;;;;;4731614;30;20052;-72
2021/01/29 12:42:02;;;;;;;4.65;1.77;;;14.20;99.90;;;;;;4730275;30;20377;-73
2021/01/29 12:44:37;;;;;;;10.50;2.17;;;14.20;99.90;;;;;;4728795;30;20517;-74
2021/01/29 12:47:24;;;;;;;4.57;1.80;;;14.10;99.90;;;;;;4731774;30;20037;-72
2021/01/29 12:49:58;;;;;;;4.97;1.73;;;14.20;99.90;;;;;;4731062;30;21124;-75
2021/01/29 12:52:40;;;;;;;3.38;1.48;;;14.10;99.90;;;;;;4730437;30;20382;-72
2021/01/29 12:55:15;;;;;;;2.58;1.50;;;14.20;99.90;;;;;;4729882;30;20048;-73
2021/01/29 12:57:41;;;;;;;3.55;1.27;;;14.40;99.90;;;;;;4729839;30;20210;-72
2021/01/29 13:00:27;;;;;;;5.30;1.60;;;14.50;99.90;;;;;;4731537;30;20033;-72
2021/01/29 13:03:14;;;;;;;7.07;1.95;;;14.70;99.90;;;;;;4729078;30;20404;-72
2021/01/29 13:05:47;;;;;;;2.38;1.63;;;14.70;99.90;;;;;;4730067;30;20118;-75
2021/01/29 13:08:19;;;;;;;4.53;1.70;;;14.70;99.90;;;;;;4731251;30;20036;-72
2021/01/29 13:10:56;;;;;;;6.70;1.88;;;14.90;99.90;;;;;;4730155;30;20547;-71
2021/01/29 13:13:33;;;;;;;6.45;1.92;;;14.90;99.90;;;;;;4732165;30;20063;-71
2021/01/29 13:16:19;;;;;;;5.30;1.67;;;14.90;99.90;;;;;;4728575;30;20054;-71
2021/01/29 13:19:03;;;;;;;2.42;1.38;;;15.00;99.90;;;;;;4726126;30;20048;-72
2021/01/29 13:21:50;;;;;;;5.07;1.83;;;15.20;99.90;;;;;;4730796;30;20505;-71
2021/01/29 13:24:35;;;;;;;3.85;1.90;;;15.30;99.90;;;;;;4731132;30;20494;-71
2021/01/29 13:27:05;;;;;;;5.38;1.90;;;15.30;99.90;;;;;;4730169;30;20037;-71
2021/01/29 13:29:33;;;;;;;8.13;1.88;;;15.30;99.90;;;;;;4722799;30;20048;-71
2021/01/29 13:32:19;;;;;;;2.92;1.17;;;15.30;99.90;;;;;;4730797;30;20076;-71
2021/01/29 13:34:46;;;;;;;7.22;2.10;;;15.10;99.90;;;;;;4731134;30;20114;-70
2021/01/29 13:37:17;;;;;;;4.43;1.70;;;15.00;99.90;;;;;;4729892;30;20473;-71
2021/01/29 13:39:45;;;;;;;4.57;1.80;;;14.90;99.90;;;;;;4729698;30;20054;-71
2021/01/29 13:42:11;;;;;;;6.07;2.40;;;14.80;99.90;;;;;;4731975;30;20071;-77
2021/01/29 13:44:52;;;;;;;4.05;1.70;;;14.70;99.90;;;;;;4730762;30;20482;-73
2021/01/29 13:47:34;;;;;;;3.78;1.55;;;14.80;99.90;;;;;;4727344;30;20040;-73
2021/01/29 13:50:21;;;;;;;6.10;1.73;;;14.70;99.90;;;;;;4728303;30;20090;-71
2021/01/29 13:52:59;;;;;;;13.63;2.63;;;14.60;99.90;;;;;;4730435;30;20384;-71
2021/01/29 13:55:36;;;;;;;7.10;2.13;;;14.70;99.90;;;;;;4728840;30;20049;-72
2021/01/29 13:58:08;;;;;;;16.17;2.38;;;14.70;99.90;;;;;;4729253;30;20394;-75
2021/01/29 14:00:49;;;;;;;5.47;1.90;;;14.70;99.90;;;;;;4729653;30;20033;-70
2021/01/29 14:03:29;;;;;;;9.70;1.83;;;14.70;99.90;;;;;;4729048;30;20033;-69
2021/01/29 14:05:56;;;;;;;12.48;3.40;;;14.60;99.90;;;;;;4726067;30;20036;-68
2021/01/29 14:08:22;;;;;;;15.73;4.40;;;14.60;99.90;;;;;;4730224;30;20498;-69
2021/01/29 14:10:57;;;;;;;5.90;2.55;;;14.70;99.90;;;;;;4731006;30;20057;-69
2021/01/29 14:13:42;;;;;;;8.05;2.45;;;14.70;99.90;;;;;;4729494;30;20074;-69
2021/01/29 14:16:20;;;;;;;12.82;3.13;;;14.70;99.90;;;;;;4729785;30;20047;-69
2021/01/29 14:19:04;;;;;;;5.00;2.15;;;14.60;99.90;;;;;;4730239;30;20048;-69
2021/01/29 14:21:35;;;;;;;7.10;2.30;;;14.50;99.90;;;;;;4730234;30;20041;-71
2021/01/29 14:24:33;;;;;;;8.77;3.67;;;14.40;99.90;;;;;;4730293;30;20490;-70
2021/01/29 14:27:47;;;;;;;8.35;2.80;;;14.40;99.90;;;;;;4718883;30;20076;-75
2021/01/29 14:30:27;;;;;;;12.20;2.67;;;14.40;99.90;;;;;;4668053;30;20070;-77
2021/01/29 14:33:01;;;;;;;6.05;2.30;;;14.50;99.90;;;;;;4664565;30;20082;-70
2021/01/29 14:35:50;;;;;;;5.65;2.00;;;14.50;99.90;;;;;;4706865;30;20131;-70
2021/01/29 14:38:37;;;;;;;8.63;3.03;;;14.60;99.90;;;;;;4730107;30;20489;-70
2021/01/29 14:41:16;;;;;;;9.38;3.10;;;14.60;99.90;;;;;;4728597;30;20043;-69
2021/01/29 14:44:07;;;;;;;8.43;2.35;;;14.60;99.90;;;;;;4730203;30;20094;-70
2021/01/29 14:46:41;;;;;;;8.13;2.63;;;14.60;99.90;;;;;;4731870;30;20033;-75
2021/01/29 14:49:32;;;;;;;17.80;3.15;;;14.60;99.90;;;;;;4733404;30;20044;-70
2021/01/29 14:52:06;;;;;;;6.68;2.05;;;14.50;99.90;;;;;;4732155;30;20548;-71
2021/01/29 14:54:32;;;;;;;8.82;2.28;;;14.50;99.90;;;;;;4732114;30;20036;-73
2021/01/29 14:57:14;;;;;;;16.33;2.63;;;14.40;99.90;;;;;;4733029;30;20033;-71
2021/01/29 14:59:50;;;;;;;6.00;2.50;;;14.30;99.90;;;;;;4732304;30;20049;-71
2021/01/29 15:02:34;;;;;;;10.75;2.58;;;14.20;99.90;;;;;;4733581;30;20036;-72
2021/01/29 15:05:03;;;;;;;7.95;2.80;;;14.10;99.90;;;;;;4732524;30;20495;-71
2021/01/29 15:07:33;;;;;;;9.43;2.92;;;14.00;99.90;;;;;;4730380;30;20112;-73
2021/01/29 15:10:14;;;;;;;6.38;2.75;;;13.90;99.90;;;;;;4732105;30;20041;-73
2021/01/29 15:12:44;;;;;;;8.93;2.70;;;13.90;99.90;;;;;;4733277;30;20118;-71
2021/01/29 15:15:19;;;;;;;13.23;3.83;;;13.90;99.90;;;;;;4733088;30;20068;-72
2021/01/29 15:18:01;;;;;;;10.48;3.38;;;13.80;99.90;;;;;;4732166;30;20024;-71
2021/01/29 15:20:27;;;;;;;13.10;3.78;;;13.70;99.90;;;;;;4729064;30;20036;-72
2021/01/29 15:23:17;;;;;;;8.40;3.00;;;13.70;99.90;;;;;;4732782;30;20032;-71
2021/01/29 15:25:53;;;;;;;8.75;2.83;;;13.80;99.90;;;;;;4733074;30;20402;-71
2021/01/29 15:28:23;;;;;;;5.50;2.65;;;13.70;99.90;;;;;;4732264;30;20083;-72
2021/01/29 15:30:52;;;;;;;8.82;2.33;;;13.70;99.90;;;;;;4730737;30;20036;-73
2021/01/29 15:33:27;;;;;;;11.95;3.80;;;13.70;99.90;;;;;;4731576;30;20518;-71
2021/01/29 15:36:12;;;;;;;12.57;4.32;;;13.70;99.90;;;;;;4731450;30;20028;-73
2021/01/29 15:38:41;;;;;;;10.20;3.67;;;13.70;99.90;;;;;;4730880;30;20432;-74
2021/01/29 15:41:47;;;;;;;12.45;3.53;;;13.70;99.90;;;;;;4732363;30;20492;-72
2021/01/29 15:44:23;;;;;;;9.82;2.92;;;13.70;99.90;;;;;;4677253;30;20048;-70
2021/01/29 15:47:47;;;;;;;12.82;3.97;;;13.60;99.90;;;;;;4726842;30;20127;-71
2021/01/29 15:50:51;;;;;;;11.18;3.45;;;13.60;99.90;;;;;;4733418;30;20037;-71
2021/01/29 15:54:02;;;;;;;24.33;4.60;;;13.60;99.90;;;;;;4732038;30;20037;-71
2021/01/29 15:56:31;;;;;;;11.98;2.85;;;13.60;99.90;;;;;;4731322;30;20048;-71
2021/01/29 15:59:22;;;;;;;12.07;4.07;;;13.60;99.90;;;;;;4734541;30;20040;-71
2021/01/29 16:01:55;;;;;;;11.43;3.33;;;13.50;99.90;;;;;;4731402;30;20499;-72
2021/01/29 16:04:20;;;;;;;8.38;3.03;;;13.50;99.90;;;;;;4732567;30;20054;-71
2021/01/29 16:06:55;;;;;;;9.60;3.53;;;13.50;99.90;;;;;;4732850;30;20048;-74
2021/01/29 16:09:27;;;;;;;10.65;3.58;;;13.50;99.90;;;;;;4735312;30;20048;-72
2021/01/29 16:11:55;;;;;;;14.10;3.88;;;13.50;99.90;;;;;;4731916;30;20044;-71
2021/01/29 16:14:25;;;;;;;11.52;3.30;;;13.50;99.90;;;;;;4731048;30;20067;-71
2021/01/29 16:17:05;;;;;;;18.58;4.53;;;13.50;99.90;;;;;;4731885;30;20094;-71
2021/01/29 16:19:31;;;;;;;10.27;4.32;;;13.50;99.90;;;;;;4730205;30;20402;-71
2021/01/29 16:22:10;;;;;;;10.75;3.70;;;13.40;99.90;;;;;;4731449;30;20041;-73
2021/01/29 16:24:44;;;;;;;15.65;4.70;;;13.40;99.90;;;;;;4731606;30;20553;-71
2021/01/29 16:27:17;;;;;;;13.32;4.38;;;13.40;99.90;;;;;;4731859;30;20036;-71
2021/01/29 16:29:44;;;;;;;;;;;13.30;99.90;;;;;;4731480;30;20040;-71
2021/01/29 16:32:13;;;;;;;10.85;4.90;;;13.20;99.90;;;;;;4731608;30;19961;-72
2021/01/29 16:34:40;;;;;;;13.63;4.38;;;13.20;99.90;;;;;;4732096;30;20116;-72
2021/01/29 16:37:14;;;;;;;12.40;4.22;;;13.20;99.90;;;;;;4731533;30;20079;-70
2021/01/29 16:39:53;;;;;;;13.90;4.40;;;13.20;99.90;;;;;;4731137;30;20056;-71
2021/01/29 16:42:31;;;;;;;10.32;3.97;;;13.20;99.90;;;;;;4731801;30;20032;-74
2021/01/29 16:45:19;;;;;;;11.93;3.45;;;13.20;99.90;;;;;;4731048;30;20043;-73
2021/01/29 16:47:57;;;;;;;14.20;4.28;;;13.20;99.90;;;;;;4731439;30;20169;-72
2021/01/29 16:50:55;;;;;;;11.80;4.85;;;13.20;99.90;;;;;;4730015;30;20051;-72
2021/01/29 16:53:26;;;;;;;11.35;4.20;;;13.20;99.90;;;;;;4719300;30;20052;-73
2021/01/29 16:56:13;;;;;;;8.82;3.45;;;13.20;99.90;;;;;;4731256;30;20147;-73
2021/01/29 16:59:07;;;;;;;7.90;3.60;;;13.20;99.90;;;;;;4731356;30;20629;-74
2021/01/29 17:01:35;;;;;;;11.27;4.40;;;13.20;99.90;;;;;;4726375;30;20048;-73
2021/01/29 17:04:05;;;;;;;12.70;3.90;;;13.20;99.90;;;;;;4729251;30;20372;-75
2021/01/29 17:06:56;;;;;;;13.45;3.92;;;13.20;99.90;;;;;;4728514;30;20043;-71
2021/01/29 17:09:29;;;;;;;14.93;3.70;;;13.20;99.90;;;;;;4730826;30;20036;-70
2021/01/29 17:11:58;;;;;;;11.95;4.15;;;13.20;99.90;;;;;;4730789;30;20029;-71
2021/01/29 17:14:28;;;;;;;16.35;4.20;;;13.20;99.90;;;;;;4728988;30;20029;-71
2021/01/29 17:16:59;;;;;;;8.43;3.45;;;13.20;99.90;;;;;;4730901;30;20115;-71
2021/01/29 17:19:31;;;;;;;10.10;3.97;;;13.20;99.90;;;;;;4732921;30;20044;-71
2021/01/29 17:22:05;;;;;;;15.20;4.68;;;13.10;99.90;;;;;;4729961;30;20098;-71
2021/01/29 17:24:42;;;;;;;17.27;5.15;;;13.10;99.90;;;;;;4730739;30;20040;-70
2021/01/29 17:27:12;;;;;;;13.10;3.80;;;13.10;99.90;;;;;;4729850;30;20035;-71
2021/01/29 17:29:51;;;;;;;15.50;5.47;;;13.10;99.90;;;;;;4732439;30;20076;-73
2021/01/29 17:32:25;;;;;;;15.43;4.10;;;13.10;99.90;;;;;;4727590;30;20069;-74
2021/01/29 17:34:54;;;;;;;19.17;5.32;;;13.10;99.90;;;;;;4730841;30;20033;-73
2021/01/29 17:37:22;;;;;;;21.50;5.40;;;13.10;99.90;;;;;;4731357;30;20040;-73
2021/01/29 17:39:48;;;;;;;10.48;4.13;;;13.10;99.90;;;;;;4730330;30;20052;-73
2021/01/29 17:42:43;;;;;;;11.43;3.92;;;13.00;99.90;;;;;;4729455;30;20039;-73
2021/01/29 17:45:15;;;;;;;15.23;4.60;;;13.00;99.90;;;;;;4728118;30;20053;-75
2021/01/29 17:47:44;;;;;;;15.85;5.40;;;13.00;99.90;;;;;;4730881;30;20040;-73
2021/01/29 17:50:31;;;;;;;16.75;5.13;;;13.00;99.90;;;;;;4731544;30;20032;-75
2021/01/29 17:53:01;;;;;;;19.65;4.60;;;13.00;99.90;;;;;;4729496;30;20368;-73
2021/01/29 17:55:39;;;;;;;16.80;4.90;;;13.00;99.90;;;;;;4729707;30;20052;-71
2021/01/29 17:58:23;;;;;;;11.32;4.90;;;12.90;99.90;;;;;;4729647;30;20032;-71
2021/01/29 18:00:56;;;;;;;9.60;3.97;;;12.90;99.90;;;;;;4731028;30;20075;-74
2021/01/29 18:03:23;;;;;;;12.07;5.00;;;12.90;99.90;;;;;;4728757;30;20028;-73
2021/01/29 18:05:54;;;;;;;17.50;5.60;;;12.90;99.90;;;;;;4729854;30;20041;-72
2021/01/29 18:08:44;;;;;;;17.02;5.28;;;12.90;99.90;;;;;;4730596;30;20122;-72
2021/01/29 18:11:27;;;;;;;13.75;5.78;;;12.90;99.90;;;;;;4725756;30;20029;-70
2021/01/29 18:13:56;;;;;;;17.90;6.47;;;12.90;99.90;;;;;;4730331;30;20055;-71
2021/01/29 18:16:26;;;;;;;15.68;5.10;;;12.90;99.90;;;;;;4728966;30;20036;-71
2021/01/29 18:18:55;;;;;;;16.92;5.88;;;12.90;99.90;;;;;;4728040;30;20127;-71
2021/01/29 18:21:34;;;;;;;11.18;5.30;;;12.90;99.90;;;;;;4728655;30;20039;-71
2021/01/29 18:24:05;;;;;;;22.92;5.35;;;12.80;99.90;;;;;;4729778;30;20094;-72
2021/01/29 18:26:32;;;;;;;15.68;5.28;;;12.80;99.90;;;;;;4729703;30;20494;-72
2021/01/29 18:29:01;;;;;;;24.73;5.95;;;12.70;99.90;;;;;;4728939;30;20092;-71
2021/01/29 18:31:32;;;;;;;10.93;4.45;;;12.80;99.90;;;;;;4729898;30;20044;-71
2021/01/29 18:34:01;;;;;;;10.50;3.92;;;12.70;99.90;;;;;;4730458;30;20063;-74
2021/01/29 18:36:29;;;;;;;13.13;4.10;;;12.70;99.90;;;;;;4730280;30;20031;-71
2021/01/29 18:38:56;;;;;;;16.70;5.13;;;12.70;99.90;;;;;;4729588;30;20639;-72